Westchester County Airport
KHPN : now visible

Airfield :











YOU CAN JOIN US ON...

 
LOGIN :

Register | Disclaimer

   EN    FR    IT 

 









Legend :    VFR   Marginal VFR   IFR   Intensive IFR   Very Intensive IFR
Visi :
Ceiling :
>= 8 km
>= 3000ft
5 to 8 km
1000 to 3000 ft
1500m to 5 km
500 to 1000 ft
800 to 1500m
200 to 500 ft
< 800m
< 200 ft
Symbols :   Thunderstorms  Fog  Heavy snow  Heavy precipitations  Wind > 20 kt






- Airport Elevation : 439 ft
- IATA code : HPN


KHPN - Westchester County

CURRENT METAR :
  • 272256Z VRB05KT 10SM SCT095 23/08 A2985 RMK AO2 SLP103 T02330083

EXPIRED METARs :
  • 272156Z VRB05KT 10SM CLR 24/09 A2985 RMK AO2 SLP103 T02390089
  • 272056Z 23009G15KT 200V280 10SM CLR 24/09 A2985 RMK AO2 SLP105 T02440094 56020

TAF KHPN
Valid from the 27 at 20:00 until the 28 at 18:00 UTC


271938Z 2720/2818 24010G17KT P6SM FEW250
FM280000 23010KT P6SM SCT200
FM280700 23005KT P6SM VCSH SCT060 SCT150
FM281500 28008KT P6SM VCSH BKN060 AMD NOT SKED
KZBW FIR / North America



MET'MAP, your aeronautical weather chart ! - Copyright ORBIFLY December 2007 - Disclaimer

ORBIFLY MET'MAP TEAM :

Programming & Development : Alexandra Zaïnal
Concept & original design : Baudouin d'Aumeries
Assistance for programming : Marc-Olivier Méhu
Technical & hardware support : Manuel Goepfert

Contact : metmap@orbifly.com




SOURCES & CREDITS :

   NOAA       Earth
Advisory